Julian Carroll Airport
KJKL : now visible

Airfield :











YOU CAN JOIN US ON...

 
LOGIN :

Register | Disclaimer

   EN    FR    IT 

 









Legend :    VFR   Marginal VFR   IFR   Intensive IFR   Very Intensive IFR
Visi :
Ceiling :
>= 8 km
>= 3000ft
5 to 8 km
1000 to 3000 ft
1500m to 5 km
500 to 1000 ft
800 to 1500m
200 to 500 ft
< 800m
< 200 ft
Symbols :   Thunderstorms  Fog  Heavy snow  Heavy precipitations  Wind > 20 kt






- Airport Elevation : 1381 ft


KJKL - Julian Carroll

CURRENT METAR :
  • 211953Z AUTO VRB06G21KT 9SM SCT042 OVC065 04/M04 A3011 RMK AO2 SLP202 T00391044

EXPIRED METARs :
  • 211853Z AUTO 31007G19KT 280V340 10SM FEW040 BKN050 OVC060 03/M04 A3012 RMK AO2 RAB30E38SNB29E39 SLP202 P0000 T00331044
  • 211753Z AUTO 27007KT 230V310 10SM FEW026 SCT032 OVC045 03/M03 A3012 RMK AO2 SNB19E33 SLP203 P0000 60000 T00281028 10028 20000 50009
  • 211736Z AUTO 28007KT 240V310 9SM FEW020 BKN041 OVC047 03/M02 A3012 RMK AO2 SNB19E33 P0000 T00281022

TAF KJKL
Valid from the 21 at 18:00 until the 22 at 18:00 UTC


211739Z 2118/2218 30008KT P6SM VCSH SCT015 BKN025
FM211900 29009KT P6SM VCSH SCT025 BKN035
FM212000 29010G18KT P6SM VCSH SCT025 BKN040
FM212200 29009KT P6SM VCSH SCT060 BKN070
FM220200 VRB05KT P6SM FEW080 SCT090
KZID FIR / North America



MET'MAP, your aeronautical weather chart ! - Copyright ORBIFLY December 2007 - Disclaimer

ORBIFLY MET'MAP TEAM :

Programming & Development : Alexandra Zaïnal
Concept & original design : Baudouin d'Aumeries
Assistance for programming : Marc-Olivier Méhu
Technical & hardware support : Manuel Goepfert

Contact : metmap@orbifly.com




SOURCES & CREDITS :

   NOAA       Earth
Advisory